Time;durP1;ratioP1;P1;durP2;ratioP2;P2;SDS_P1;SDS_P2;PMS_P1;PMS_P2;Temp;Humidity;BMP_temperature;BMP_pressure;BME280_temperature;BME280_humidity;BME280_pressure;Samples;Min_cycle;Max_cycle;Signal;HPM_P1;HPM_P2
2022/10/30 00:01:47;;;;;;;;;;;;;;;;;;10574157;28;19928;-64
2022/10/30 00:06:50;;;;;;;;;;;;;;;;;;10545609;28;19931;-64
2022/10/30 00:11:52;;;;;;;;;;;;;;;;;;10545471;28;19928;-64
2022/10/30 00:16:54;;;;;;;;;;;;;;;;;;10558581;28;19923;-64
2022/10/30 00:22:01;;;;;;;;;;;;;;;;;;10583733;28;20370;-64
2022/10/30 00:27:02;;;;;;;;;;;;;;;;;;10587078;28;19988;-64
2022/10/30 00:32:04;;;;;;;;;;;;;;;;;;10583289;28;19924;-64
2022/10/30 00:37:06;;;;;;;;;;;;;;;;;;10586701;28;19927;-64
2022/10/30 00:42:08;;;;;;;;;;;;;;;;;;10565708;28;19969;-64
2022/10/30 00:47:10;;;;;;;;;;;;;;;;;;10543960;28;19924;-64
2022/10/30 00:52:12;;;;;;;;;;;;;;;;;;10542378;28;19931;-64
2022/10/30 00:57:14;;;;;;;;;;;;;;;;;;10542522;28;19969;-64
2022/10/30 01:02:17;;;;;;;;;;;;;;;;;;10565113;28;19932;-64
2022/10/30 01:07:19;;;;;;;;;;;;;;;;;;10584709;28;20365;-64
2022/10/30 01:12:21;;;;;;;;;;;;;;;;;;10585210;28;19924;-64
2022/10/30 01:17:24;;;;;;;;;;;;;;;;;;10575696;28;19969;-64
2022/10/30 01:22:26;;;;;;;;;;;;;;;;;;10584783;28;19977;-64
2022/10/30 01:27:28;;;;;;;;;;;;;;;;;;10581496;28;20432;-64
2022/10/30 01:32:30;;;;;;;;;;;;;;;;;;10584126;28;19923;-64
2022/10/30 01:37:32;;;;;;;;;;;;;;;;;;10584223;28;19927;-64
2022/10/30 01:42:34;;;;;;;;;;;;;;;;;;10582254;28;19970;-64
2022/10/30 01:47:36;;;;;;;;;;;;;;;;;;10581606;28;20337;-64
2022/10/30 01:52:40;;;;;;;;;;;;;;;;;;10583687;28;19923;-64
2022/10/30 01:57:42;;;;;;;;;;;;;;;;;;10557339;28;20366;-64
2022/10/30 02:02:44;;;;;;;;;;;;;;;;;;10540526;28;19977;-64
2022/10/30 02:07:46;;;;;;;;;;;;;;;;;;10540388;28;20463;-64
2022/10/30 02:12:48;;;;;;;;;;;;;;;;;;10566710;28;19927;-64
2022/10/30 02:17:50;;;;;;;;;;;;;;;;;;10580941;28;20366;-64
2022/10/30 02:22:52;;;;;;;;;;;;;;;;;;10554602;28;19977;-64
2022/10/30 02:27:59;;;;;;;;;;;;;;;;;;10539546;28;19973;-64
2022/10/30 02:33:01;;;;;;;;;;;;;;;;;;10539991;28;19928;-64
2022/10/30 02:38:03;;;;;;;;;;;;;;;;;;10539728;28;19931;-64
2022/10/30 02:43:05;;;;;;;;;;;;;;;;;;10553714;28;19924;-64
2022/10/30 02:48:07;;;;;;;;;;;;;;;;;;10582240;28;19931;-64
2022/10/30 02:53:14;;;;;;;;;;;;;;;;;;10580578;28;19924;-64
2022/10/30 02:58:16;;;;;;;;;;;;;;;;;;10581555;28;19931;-64
2022/10/30 03:03:18;;;;;;;;;;;;;;;;;;10581441;28;19969;-64
2022/10/30 03:08:23;;;;;;;;;;;;;;;;;;10580304;28;19923;-64
2022/10/30 03:13:26;;;;;;;;;;;;;;;;;;10581881;28;19973;-64
2022/10/30 03:18:28;;;;;;;;;;;;;;;;;;10589099;28;20313;-64
2022/10/30 03:23:30;;;;;;;;;;;;;;;;;;10551326;28;20427;-64
2022/10/30 03:28:32;;;;;;;;;;;;;;;;;;10547119;28;19924;-64
2022/10/30 03:33:34;;;;;;;;;;;;;;;;;;10546203;28;20256;-64
2022/10/30 03:38:36;;;;;;;;;;;;;;;;;;10584233;28;19977;-64
2022/10/30 03:43:38;;;;;;;;;;;;;;;;;;10586906;28;19924;-64
2022/10/30 03:48:40;;;;;;;;;;;;;;;;;;10588570;28;19948;-64
2022/10/30 03:53:42;;;;;;;;;;;;;;;;;;10587197;28;19949;-64
2022/10/30 03:58:44;;;;;;;;;;;;;;;;;;10587604;28;20386;-64
2022/10/30 04:03:46;;;;;;;;;;;;;;;;;;10587999;28;19928;-64
2022/10/30 04:08:48;;;;;;;;;;;;;;;;;;10584486;28;19977;-64
2022/10/30 04:13:50;;;;;;;;;;;;;;;;;;10584382;28;20378;-64
2022/10/30 04:18:52;;;;;;;;;;;;;;;;;;10586844;28;19924;-64
2022/10/30 04:23:55;;;;;;;;;;;;;;;;;;10546170;28;19977;-64
2022/10/30 04:28:57;;;;;;;;;;;;;;;;;;10524934;28;20383;-64
2022/10/30 04:33:59;;;;;;;;;;;;;;;;;;10543649;28;19974;-64
2022/10/30 04:39:02;;;;;;;;;;;;;;;;;;10584441;28;19923;-64
2022/10/30 04:44:04;;;;;;;;;;;;;;;;;;10584231;28;20306;-64
2022/10/30 04:49:06;;;;;;;;;;;;;;;;;;10568107;28;19950;-64
2022/10/30 04:54:08;;;;;;;;;;;;;;;;;;10584384;28;19973;-64
2022/10/30 04:59:10;;;;;;;;;;;;;;;;;;10585784;28;20035;-64
2022/10/30 05:04:12;;;;;;;;;;;;;;;;;;10583764;28;19950;-64
2022/10/30 05:09:14;;;;;;;;;;;;;;;;;;10585330;28;19923;-64
2022/10/30 05:14:16;;;;;;;;;;;;;;;;;;10585365;28;19976;-63
2022/10/30 05:19:18;;;;;;;;;;;;;;;;;;10578277;28;20375;-64
2022/10/30 05:24:20;;;;;;;;;;;;;;;;;;10542618;28;19970;-63
2022/10/30 05:29:22;;;;;;;;;;;;;;;;;;10551789;28;19977;-63
2022/10/30 05:34:24;;;;;;;;;;;;;;;;;;10583598;28;19924;-63
2022/10/30 05:39:26;;;;;;;;;;;;;;;;;;10583819;28;19923;-63
2022/10/30 05:44:28;;;;;;;;;;;;;;;;;;10582300;28;19973;-64
2022/10/30 05:49:50;;;;;;;;;;;;;;;;;;10582156;28;20010;-63
2022/10/30 05:54:52;;;;;;;;;;;;;;;;;;10583674;28;19973;-64
2022/10/30 05:59:55;;;;;;;;;;;;;;;;;;10581962;28;19974;-63
2022/10/30 06:04:57;;;;;;;;;;;;;;;;;;10582668;28;19924;-63
2022/10/30 06:09:59;;;;;;;;;;;;;;;;;;10583122;28;19927;-63
2022/10/30 06:15:01;;;;;;;;;;;;;;;;;;10575860;28;19950;-63
2022/10/30 06:20:03;;;;;;;;;;;;;;;;;;10540153;28;20280;-63
2022/10/30 06:25:05;;;;;;;;;;;;;;;;;;10540649;28;19978;-63
2022/10/30 06:30:07;;;;;;;;;;;;;;;;;;10546727;28;20321;-63
2022/10/30 06:35:09;;;;;;;;;;;;;;;;;;10582147;28;19988;-64
2022/10/30 06:40:11;;;;;;;;;;;;;;;;;;10582474;28;19923;-63
2022/10/30 06:45:13;;;;;;;;;;;;;;;;;;10575538;28;19924;-64
2022/10/30 06:50:15;;;;;;;;;;;;;;;;;;10592496;22;19924;-68
2022/10/30 06:55:17;;;;;;;;;;;;;;;;;;10572185;28;19924;-63
2022/10/30 07:00:19;;;;;;;;;;;;;;;;;;10589813;28;19927;-67
2022/10/30 07:05:21;;;;;;;;;;;;;;;;;;10590441;28;19928;-68
2022/10/30 07:10:23;;;;;;;;;;;;;;;;;;10589496;28;20362;-68
2022/10/30 07:15:25;;;;;;;;;;;;;;;;;;10588465;28;19923;-67
2022/10/30 07:20:27;;;;;;;;;;;;;;;;;;10589263;28;19927;-68
2022/10/30 07:25:30;;;;;;;;;;;;;;;;;;10571559;28;19928;-67
2022/10/30 07:30:32;;;;;;;;;;;;;;;;;;10588516;28;19969;-68
2022/10/30 07:35:34;;;;;;;;;;;;;;;;;;10588635;28;20321;-68
2022/10/30 07:40:36;;;;;;;;;;;;;;;;;;10587420;28;19932;-68
2022/10/30 07:45:38;;;;;;;;;;;;;;;;;;10588163;28;19923;-68
2022/10/30 07:50:40;;;;;;;;;;;;;;;;;;10586904;28;19927;-68
2022/10/30 07:55:42;;;;;;;;;;;;;;;;;;10588438;28;19928;-68
2022/10/30 08:00:44;;;;;;;;;;;;;;;;;;10587981;28;19984;-68
2022/10/30 08:05:46;;;;;;;;;;;;;;;;;;10586522;28;20259;-68
2022/10/30 08:10:48;;;;;;;;;;;;;;;;;;10587920;28;19973;-68
2022/10/30 08:15:50;;;;;;;;;;;;;;;;;;10586755;28;19928;-68
2022/10/30 08:20:52;;;;;;;;;;;;;;;;;;10586812;28;20286;-68
2022/10/30 08:25:54;;;;;;;;;;;;;;;;;;10587279;28;19923;-68
2022/10/30 08:30:56;;;;;;;;;;;;;;;;;;10585472;28;20412;-68
2022/10/30 08:35:58;;;;;;;;;;;;;;;;;;10586875;28;19927;-68
2022/10/30 08:41:00;;;;;;;;;;;;;;;;;;10568021;28;20434;-68
2022/10/30 08:46:02;;;;;;;;;;;;;;;;;;10585478;28;19924;-68
2022/10/30 08:51:05;;;;;;;;;;;;;;;;;;10586252;28;19973;-68
2022/10/30 08:56:08;;;;;;;;;;;;;;;;;;10585146;28;19923;-68
2022/10/30 09:01:10;;;;;;;;;;;;;;;;;;10580017;28;20462;-68
2022/10/30 09:06:12;;;;;;;;;;;;;;;;;;10583445;28;19924;-68
2022/10/30 09:11:16;;;;;;;;;;;;;;;;;;10585009;28;19949;-68
2022/10/30 09:16:18;;;;;;;;;;;;;;;;;;10583010;28;20382;-68
2022/10/30 09:21:20;;;;;;;;;;;;;;;;;;10566924;28;19928;-68
2022/10/30 09:26:22;;;;;;;;;;;;;;;;;;10581687;28;20439;-68
2022/10/30 09:31:24;;;;;;;;;;;;;;;;;;10566469;28;19923;-68
2022/10/30 09:36:26;;;;;;;;;;;;;;;;;;10583733;28;20268;-68
2022/10/30 09:41:28;;;;;;;;;;;;;;;;;;10582327;28;20374;-68
2022/10/30 09:46:30;;;;;;;;;;;;;;;;;;10580724;28;19980;-68
2022/10/30 09:51:32;;;;;;;;;;;;;;;;;;10580073;28;19923;-68
2022/10/30 09:56:34;;;;;;;;;;;;;;;;;;10582026;28;19969;-69
2022/10/30 10:01:36;;;;;;;;;;;;;;;;;;10580940;28;19924;-69
2022/10/30 10:06:39;;;;;;;;;;;;;;;;;;10583482;28;19924;-69
2022/10/30 10:11:41;;;;;;;;;;;;;;;;;;10592374;27;19927;-69
2022/10/30 10:16:43;;;;;;;;;;;;;;;;;;10580211;28;19969;-69
2022/10/30 10:21:45;;;;;;;;;;;;;;;;;;10582725;28;19923;-68
2022/10/30 10:26:48;;;;;;;;;;;;;;;;;;10581452;28;19927;-69
2022/10/30 10:31:51;;;;;;;;;;;;;;;;;;10581913;28;19928;-69
2022/10/30 10:36:53;;;;;;;;;;;;;;;;;;10581617;28;19969;-69
2022/10/30 10:41:55;;;;;;;;;;;;;;;;;;10582487;28;19927;-69
2022/10/30 10:46:57;;;;;;;;;;;;;;;;;;10581985;28;19969;-69
2022/10/30 10:52:02;;;;;;;;;;;;;;;;;;10580679;28;19924;-69
2022/10/30 10:57:04;;;;;;;;;;;;;;;;;;10580235;28;19993;-69
2022/10/30 11:02:06;;;;;;;;;;;;;;;;;;10582216;28;19924;-67
2022/10/30 11:07:08;;;;;;;;;;;;;;;;;;10581303;28;19924;-69
2022/10/30 11:12:10;;;;;;;;;;;;;;;;;;10581020;28;19927;-69
2022/10/30 11:17:12;;;;;;;;;;;;;;;;;;10561251;28;20342;-69
2022/10/30 11:22:14;;;;;;;;;;;;;;;;;;10579703;28;19932;-69
2022/10/30 11:27:17;;;;;;;;;;;;;;;;;;10579408;28;19951;-69
2022/10/30 11:32:21;;;;;;;;;;;;;;;;;;10579624;28;19977;-69
2022/10/30 11:37:23;;;;;;;;;;;;;;;;;;10584849;28;19924;-69
2022/10/30 11:42:25;;;;;;;;;;;;;;;;;;10571145;28;19977;-67
2022/10/30 11:47:27;;;;;;;;;;;;;;;;;;10586202;28;19924;-67
2022/10/30 11:52:29;;;;;;;;;;;;;;;;;;10587551;28;19931;-69
2022/10/30 11:57:31;;;;;;;;;;;;;;;;;;10585862;28;19924;-69
2022/10/30 12:02:33;;;;;;;;;;;;;;;;;;10584259;28;19993;-69
2022/10/30 12:07:35;;;;;;;;;;;;;;;;;;10585925;28;19949;-69
2022/10/30 12:12:38;;;;;;;;;;;;;;;;;;10587821;28;19924;-69
2022/10/30 12:17:40;;;;;;;;;;;;;;;;;;10583196;28;19995;-69
2022/10/30 12:22:42;;;;;;;;;;;;;;;;;;10587422;28;19928;-69
2022/10/30 12:27:44;;;;;;;;;;;;;;;;;;10586589;28;20362;-69
2022/10/30 12:32:46;;;;;;;;;;;;;;;;;;10587053;28;19928;-69
2022/10/30 12:37:48;;;;;;;;;;;;;;;;;;10586212;28;19924;-69
2022/10/30 12:42:50;;;;;;;;;;;;;;;;;;10587103;28;19973;-65
2022/10/30 12:47:52;;;;;;;;;;;;;;;;;;10584791;28;19923;-65
2022/10/30 12:52:54;;;;;;;;;;;;;;;;;;10585618;28;20331;-64
2022/10/30 12:57:56;;;;;;;;;;;;;;;;;;10583941;28;19931;-64
2022/10/30 13:02:58;;;;;;;;;;;;;;;;;;10581898;28;19985;-65
2022/10/30 13:08:01;;;;;;;;;;;;;;;;;;10584567;28;19928;-64
2022/10/30 13:13:03;;;;;;;;;;;;;;;;;;10580149;28;19997;-64
2022/10/30 13:18:05;;;;;;;;;;;;;;;;;;10565514;28;19977;-64
2022/10/30 13:23:07;;;;;;;;;;;;;;;;;;10582763;28;19950;-64
2022/10/30 13:28:09;;;;;;;;;;;;;;;;;;10583530;28;19924;-64
2022/10/30 13:33:11;;;;;;;;;;;;;;;;;;10565888;28;19969;-64
2022/10/30 13:38:13;;;;;;;;;;;;;;;;;;10584364;28;20035;-64
2022/10/30 13:43:15;;;;;;;;;;;;;;;;;;10583116;28;19968;-65
2022/10/30 13:48:18;;;;;;;;;;;;;;;;;;10583012;28;19980;-65
2022/10/30 13:53:20;;;;;;;;;;;;;;;;;;10583111;28;20366;-66
2022/10/30 13:58:22;;;;;;;;;;;;;;;;;;10581176;28;19977;-65
2022/10/30 14:03:24;;;;;;;;;;;;;;;;;;10583701;28;19927;-65
2022/10/30 14:08:26;;;;;;;;;;;;;;;;;;10582588;28;19923;-65
2022/10/30 14:13:28;;;;;;;;;;;;;;;;;;10582310;28;19924;-65
2022/10/30 14:18:30;;;;;;;;;;;;;;;;;;10583044;28;19927;-65
2022/10/30 14:23:32;;;;;;;;;;;;;;;;;;10582976;28;19950;-65
2022/10/30 14:28:34;;;;;;;;;;;;;;;;;;10581202;28;19923;-65
2022/10/30 14:33:36;;;;;;;;;;;;;;;;;;10582701;28;19969;-65
2022/10/30 14:38:38;;;;;;;;;;;;;;;;;;10581977;28;20382;-65
2022/10/30 14:43:40;;;;;;;;;;;;;;;;;;10581401;28;19927;-65
2022/10/30 14:48:42;;;;;;;;;;;;;;;;;;10581505;28;20387;-65
2022/10/30 14:53:44;;;;;;;;;;;;;;;;;;10580064;28;19975;-65
2022/10/30 14:58:46;;;;;;;;;;;;;;;;;;10581769;28;19931;-64
2022/10/30 15:03:49;;;;;;;;;;;;;;;;;;10576623;28;20336;-64
2022/10/30 15:08:51;;;;;;;;;;;;;;;;;;10581029;28;19932;-64
2022/10/30 15:13:53;;;;;;;;;;;;;;;;;;10588434;28;20386;-64
2022/10/30 15:18:55;;;;;;;;;;;;;;;;;;10589973;28;19924;-64
2022/10/30 15:23:57;;;;;;;;;;;;;;;;;;10586980;28;20328;-64
2022/10/30 15:28:59;;;;;;;;;;;;;;;;;;10589606;28;19923;-64
2022/10/30 15:34:01;;;;;;;;;;;;;;;;;;10588521;28;19931;-64
2022/10/30 15:39:03;;;;;;;;;;;;;;;;;;10586369;28;19923;-64
2022/10/30 15:44:05;;;;;;;;;;;;;;;;;;10588447;28;20328;-64
2022/10/30 15:49:07;;;;;;;;;;;;;;;;;;10588051;28;19923;-64
2022/10/30 15:54:09;;;;;;;;;;;;;;;;;;10586976;28;19927;-64
2022/10/30 15:59:12;;;;;;;;;;;;;;;;;;10587863;28;19954;-64
2022/10/30 16:04:14;;;;;;;;;;;;;;;;;;10587637;28;20438;-64
2022/10/30 16:09:16;;;;;;;;;;;;;;;;;;10587398;28;20405;-64
2022/10/30 16:14:18;;;;;;;;;;;;;;;;;;10584369;28;19924;-64
2022/10/30 16:19:20;;;;;;;;;;;;;;;;;;10587668;28;19950;-64
2022/10/30 16:24:27;;;;;;;;;;;;;;;;;;10587356;28;19923;-64
2022/10/30 16:29:29;;;;;;;;;;;;;;;;;;10585378;28;19924;-65
2022/10/30 16:34:33;;;;;;;;;;;;;;;;;;10587355;28;19977;-64
2022/10/30 16:39:35;;;;;;;;;;;;;;;;;;10586184;28;20363;-64
2022/10/30 16:44:37;;;;;;;;;;;;;;;;;;10585663;28;20029;-64
2022/10/30 16:49:41;;;;;;;;;;;;;;;;;;10584785;28;20443;-64
2022/10/30 16:54:46;;;;;;;;;;;;;;;;;;10584884;28;19924;-64
2022/10/30 16:59:49;;;;;;;;;;;;;;;;;;10585405;28;19923;-64
2022/10/30 17:04:51;;;;;;;;;;;;;;;;;;10567784;28;19927;-64
2022/10/30 17:09:57;;;;;;;;;;;;;;;;;;10584426;28;19938;-64
2022/10/30 17:14:59;;;;;;;;;;;;;;;;;;10585365;28;20003;-64
2022/10/30 17:20:01;;;;;;;;;;;;;;;;;;10583524;28;20329;-64
2022/10/30 17:25:03;;;;;;;;;;;;;;;;;;10582154;28;20275;-64
2022/10/30 17:30:05;;;;;;;;;;;;;;;;;;10583144;28;19928;-64
2022/10/30 17:35:07;;;;;;;;;;;;;;;;;;10583233;28;19953;-64
2022/10/30 17:40:09;;;;;;;;;;;;;;;;;;10565942;28;19923;-64
2022/10/30 17:45:11;;;;;;;;;;;;;;;;;;10584065;28;19932;-64
2022/10/30 17:50:14;;;;;;;;;;;;;;;;;;10580993;28;19927;-64
2022/10/30 17:55:16;;;;;;;;;;;;;;;;;;10581719;28;19977;-64
2022/10/30 18:00:18;;;;;;;;;;;;;;;;;;10583063;28;19976;-64
2022/10/30 18:05:20;;;;;;;;;;;;;;;;;;10583574;28;19954;-64
2022/10/30 18:10:22;;;;;;;;;;;;;;;;;;10581246;28;19981;-64
2022/10/30 18:15:24;;;;;;;;;;;;;;;;;;10583825;28;19927;-64
2022/10/30 18:20:26;;;;;;;;;;;;;;;;;;10582221;28;19924;-65
2022/10/30 18:25:29;;;;;;;;;;;;;;;;;;10581383;28;20328;-64
2022/10/30 18:30:31;;;;;;;;;;;;;;;;;;10582763;28;19924;-64
2022/10/30 18:35:33;;;;;;;;;;;;;;;;;;10582691;28;19969;-64
2022/10/30 18:40:35;;;;;;;;;;;;;;;;;;10580190;28;20382;-64
2022/10/30 18:45:38;;;;;;;;;;;;;;;;;;10582711;28;19967;-64
2022/10/30 18:50:41;;;;;;;;;;;;;;;;;;10590541;28;19953;-64
2022/10/30 18:55:43;;;;;;;;;;;;;;;;;;10589360;28;20328;-64
2022/10/30 19:06:12;;;;;;;;;;;;;;;;;;10461810;28;19924;-64
2022/10/30 19:11:14;;;;;;;;;;;;;;;;;;10464735;28;19928;-64
2022/10/30 19:16:19;;;;;;;;;;;;;;;;;;10462976;28;19925;-64
2022/10/30 19:21:21;;;;;;;;;;;;;;;;;;10463833;28;20367;-64
2022/10/30 19:26:23;;;;;;;;;;;;;;;;;;10460358;28;20298;-65
2022/10/30 19:31:25;;;;;;;;;;;;;;;;;;10462305;28;19929;-64
2022/10/30 19:36:27;;;;;;;;;;;;;;;;;;10461210;28;20379;-64
2022/10/30 19:41:30;;;;;;;;;;;;;;;;;;10462238;28;20383;-64
2022/10/30 19:46:32;;;;;;;;;;;;;;;;;;10462761;28;19978;-65
2022/10/30 19:51:34;;;;;;;;;;;;;;;;;;10460864;28;19928;-64
2022/10/30 19:56:38;;;;;;;;;;;;;;;;;;10459547;28;20393;-64
2022/10/30 20:01:40;;;;;;;;;;;;;;;;;;10462621;28;19925;-64
2022/10/30 20:06:43;;;;;;;;;;;;;;;;;;10438800;28;19973;-65
2022/10/30 20:11:46;;;;;;;;;;;;;;;;;;10421216;28;19925;-64
2022/10/30 20:16:48;;;;;;;;;;;;;;;;;;10417852;28;19948;-64
2022/10/30 20:21:50;;;;;;;;;;;;;;;;;;10415817;28;19925;-64
2022/10/30 20:26:52;;;;;;;;;;;;;;;;;;10420777;28;19976;-64
2022/10/30 20:31:54;;;;;;;;;;;;;;;;;;10418255;28;20426;-64
2022/10/30 20:36:56;;;;;;;;;;;;;;;;;;10458350;28;19929;-64
2022/10/30 20:41:58;;;;;;;;;;;;;;;;;;10460841;28;19924;-64
2022/10/30 20:47:00;;;;;;;;;;;;;;;;;;10459441;28;19951;-64
2022/10/30 20:52:02;;;;;;;;;;;;;;;;;;10418267;28;20425;-64
2022/10/30 20:57:04;;;;;;;;;;;;;;;;;;10460171;28;19929;-64
2022/10/30 21:02:06;;;;;;;;;;;;;;;;;;10430329;28;19929;-64
2022/10/30 21:07:08;;;;;;;;;;;;;;;;;;10459888;28;19963;-64
2022/10/30 21:12:10;;;;;;;;;;;;;;;;;;10458039;28;19970;-64
2022/10/30 21:17:13;;;;;;;;;;;;;;;;;;10459375;28;19929;-64
2022/10/30 21:22:15;;;;;;;;;;;;;;;;;;10457747;28;19925;-64
2022/10/30 21:27:17;;;;;;;;;;;;;;;;;;10459070;28;19982;-64
2022/10/30 21:32:19;;;;;;;;;;;;;;;;;;10440884;28;19979;-64
2022/10/30 21:37:21;;;;;;;;;;;;;;;;;;10458516;28;20372;-64
2022/10/30 21:42:23;;;;;;;;;;;;;;;;;;10458206;28;19925;-64
2022/10/30 21:47:25;;;;;;;;;;;;;;;;;;10458052;28;19979;-64
2022/10/30 21:52:29;;;;;;;;;;;;;;;;;;10457750;28;19925;-64
2022/10/30 21:57:31;;;;;;;;;;;;;;;;;;10456457;28;19971;-64
2022/10/30 22:02:33;;;;;;;;;;;;;;;;;;10434545;28;19926;-64
2022/10/30 22:07:35;;;;;;;;;;;;;;;;;;10416744;28;19952;-64
2022/10/30 22:12:37;;;;;;;;;;;;;;;;;;10421336;28;19928;-64
2022/10/30 22:17:39;;;;;;;;;;;;;;;;;;10457037;28;19924;-64
2022/10/30 22:22:41;;;;;;;;;;;;;;;;;;10456776;28;20441;-64
2022/10/30 22:27:43;;;;;;;;;;;;;;;;;;10456191;28;19932;-64
2022/10/30 22:32:45;;;;;;;;;;;;;;;;;;10456051;28;20364;-64
2022/10/30 22:37:48;;;;;;;;;;;;;;;;;;10457300;28;19971;-64
2022/10/30 22:42:50;;;;;;;;;;;;;;;;;;10457175;28;19991;-64
2022/10/30 22:47:52;;;;;;;;;;;;;;;;;;10455726;28;19929;-64
2022/10/30 22:52:54;;;;;;;;;;;;;;;;;;10456207;28;19983;-64
2022/10/30 22:57:56;;;;;;;;;;;;;;;;;;10456409;28;19924;-64
2022/10/30 23:02:58;;;;;;;;;;;;;;;;;;10456057;28;20287;-64
2022/10/30 23:08:00;;;;;;;;;;;;;;;;;;10456054;28;20356;-64
2022/10/30 23:13:03;;;;;;;;;;;;;;;;;;10430930;28;19925;-64
2022/10/30 23:18:05;;;;;;;;;;;;;;;;;;10414822;28;19979;-64
2022/10/30 23:23:07;;;;;;;;;;;;;;;;;;10414714;28;20445;-64
2022/10/30 23:28:09;;;;;;;;;;;;;;;;;;10439280;28;19970;-64
2022/10/30 23:33:11;;;;;;;;;;;;;;;;;;10460370;28;19932;-64
2022/10/30 23:38:13;;;;;;;;;;;;;;;;;;10463297;28;20394;-64
2022/10/30 23:43:15;;;;;;;;;;;;;;;;;;10460628;28;20339;-64
2022/10/30 23:48:17;;;;;;;;;;;;;;;;;;10463492;28;19928;-64
2022/10/30 23:53:19;;;;;;;;;;;;;;;;;;10463177;28;19979;-63
2022/10/30 23:58:21;;;;;;;;;;;;;;;;;;10460158;28;19952;-64
